Time;durP1;ratioP1;P1;durP2;ratioP2;P2;SDS_P1;SDS_P2;PMS_P1;PMS_P2;Temp;Humidity;BMP_temperature;BMP_pressure;BME280_temperature;BME280_humidity;BME280_pressure;Samples;Min_cycle;Max_cycle;Signal;HPM_P1;HPM_P2
2022/06/19 00:01:48;;;;;;;5.30;1.10;;;14.00;99.90;;;;;;5024379;28;20223;-85
2022/06/19 00:04:15;;;;;;;4.13;1.47;;;13.90;99.90;;;;;;5007535;28;20246;-84
2022/06/19 00:06:42;;;;;;;2.57;1.10;;;14.00;99.90;;;;;;5022930;28;20306;-84
2022/06/19 00:09:08;;;;;;;2.20;0.57;;;14.10;99.90;;;;;;5024850;28;20191;-86
2022/06/19 00:11:36;;;;;;;1.63;0.83;;;14.10;99.90;;;;;;5025952;28;20205;-85
2022/06/19 00:14:03;;;;;;;1.00;0.83;;;14.30;99.90;;;;;;5024294;28;20376;-85
2022/06/19 00:16:29;;;;;;;3.23;0.77;;;14.30;99.90;;;;;;5023359;28;20620;-83
2022/06/19 00:18:54;;;;;;;0.77;0.53;;;14.30;99.90;;;;;;5023711;28;20214;-83
2022/06/19 00:21:20;;;;;;;1.47;0.40;;;14.30;99.90;;;;;;5012782;28;20257;-84
2022/06/19 00:23:46;;;;;;;6.53;1.33;;;14.30;99.90;;;;;;5024209;28;20523;-85
2022/06/19 00:26:13;;;;;;;3.03;0.80;;;14.30;99.90;;;;;;5023327;28;20810;-84
2022/06/19 00:28:44;;;;;;;6.93;1.07;;;14.40;99.90;;;;;;5022745;28;20218;-84
2022/06/19 00:31:10;;;;;;;3.37;1.47;;;14.40;99.90;;;;;;5022351;28;20228;-84
2022/06/19 00:33:36;;;;;;;5.73;1.00;;;14.50;99.90;;;;;;5022558;28;20214;-84
2022/06/19 00:36:03;;;;;;;5.87;1.60;;;14.60;99.90;;;;;;5022574;28;20228;-85
2022/06/19 00:38:29;;;;;;;7.93;1.37;;;14.60;99.90;;;;;;5021285;28;20691;-84
2022/06/19 00:40:56;;;;;;;6.90;0.63;;;14.60;99.90;;;;;;5020718;28;20333;-84
2022/06/19 00:43:22;;;;;;;7.53;1.80;;;14.60;99.90;;;;;;5022660;28;20218;-85
2022/06/19 00:45:51;;;;;;;2.67;1.50;;;14.60;99.90;;;;;;5020845;28;20313;-85
2022/06/19 00:48:31;;;;;;;2.27;0.63;;;14.60;99.90;;;;;;5006605;28;20240;-85
2022/06/19 00:51:02;;;;;;;4.43;0.80;;;14.60;99.90;;;;;;5023702;28;20262;-83
2022/06/19 00:53:46;;;;;;;1.70;0.87;;;14.60;99.90;;;;;;5023950;28;20667;-82
2022/06/19 00:56:17;;;;;;;0.63;0.50;;;14.60;99.90;;;;;;5022746;28;20269;-84
2022/06/19 00:58:45;;;;;;;8.93;0.93;;;14.60;99.90;;;;;;5023050;28;20222;-84
2022/06/19 01:01:19;;;;;;;2.33;1.50;;;14.60;99.90;;;;;;5022798;28;20322;-85
2022/06/19 01:04:04;;;;;;;2.47;0.50;;;14.50;99.90;;;;;;5055504;28;20246;-83
2022/06/19 01:06:30;;;;;;;2.47;1.43;;;14.50;99.90;;;;;;5023293;28;20234;-84
2022/06/19 01:08:57;;;;;;;14.33;0.77;;;14.50;99.90;;;;;;5023668;28;20205;-84
2022/06/19 01:11:26;;;;;;;4.63;0.83;;;14.50;99.90;;;;;;4986994;28;20219;-84
2022/06/19 01:13:52;;;;;;;3.03;1.00;;;14.50;99.90;;;;;;5002105;28;20256;-83
2022/06/19 01:16:18;;;;;;;0.50;0.47;;;14.50;99.90;;;;;;5003578;28;20589;-84
2022/06/19 01:18:44;;;;;;;5.50;1.30;;;14.50;99.90;;;;;;5002316;28;20737;-83
2022/06/19 01:21:19;;;;;;;4.63;1.13;;;14.40;99.90;;;;;;5003508;28;20210;-84
2022/06/19 01:24:15;;;;;;;4.00;0.80;;;14.40;99.90;;;;;;5003838;28;20209;-83
2022/06/19 01:26:45;;;;;;;2.63;0.47;;;14.40;99.90;;;;;;5022812;28;20240;-83
2022/06/19 01:29:11;;;;;;;6.43;0.80;;;14.40;99.90;;;;;;5021594;28;20672;-83
2022/06/19 01:31:55;;;;;;;3.00;1.00;;;14.40;99.90;;;;;;5020740;28;20222;-83
2022/06/19 01:34:29;;;;;;;7.40;1.80;;;14.50;99.90;;;;;;5021287;28;20683;-82
2022/06/19 01:37:15;;;;;;;1.83;0.70;;;14.40;99.90;;;;;;5022251;28;20221;-83
2022/06/19 01:39:45;;;;;;;2.80;0.63;;;14.40;99.90;;;;;;5022019;28;20679;-84
2022/06/19 01:42:11;;;;;;;9.40;1.83;;;14.40;99.90;;;;;;5020550;28;20179;-83
2022/06/19 01:44:38;;;;;;;1.70;0.47;;;14.40;99.90;;;;;;5022717;28;20225;-83
2022/06/19 01:47:05;;;;;;;7.37;1.30;;;14.40;99.90;;;;;;5019944;28;20237;-83
2022/06/19 01:49:34;;;;;;;11.10;1.43;;;14.40;99.90;;;;;;5021252;28;20561;-83
2022/06/19 01:52:00;;;;;;;15.53;1.67;;;14.40;99.90;;;;;;5022020;28;20306;-83
2022/06/19 01:54:30;;;;;;;4.67;0.90;;;14.40;99.90;;;;;;5020419;28;20250;-82
2022/06/19 01:56:57;;;;;;;6.60;0.80;;;14.40;99.90;;;;;;5022225;28;20556;-83
2022/06/19 01:59:27;;;;;;;4.20;0.80;;;14.40;99.90;;;;;;5020375;28;20214;-83
2022/06/19 02:01:54;;;;;;;1.13;0.67;;;14.40;99.90;;;;;;5021625;28;20309;-83
2022/06/19 02:04:23;;;;;;;8.90;1.77;;;14.40;99.90;;;;;;5020067;28;20699;-83
2022/06/19 02:06:53;;;;;;;2.87;1.00;;;14.40;99.90;;;;;;5021894;28;20258;-83
2022/06/19 02:09:22;;;;;;;4.33;1.00;;;14.40;99.90;;;;;;5021110;28;20218;-83
2022/06/19 02:11:49;;;;;;;0.60;0.60;;;14.30;99.90;;;;;;5037993;28;20254;-83
2022/06/19 02:14:16;;;;;;;2.00;0.70;;;14.30;99.90;;;;;;5021618;28;20218;-83
2022/06/19 02:16:44;;;;;;;3.87;1.37;;;14.30;99.90;;;;;;5022140;28;20264;-82
2022/06/19 02:19:10;;;;;;;2.40;0.87;;;14.40;99.90;;;;;;5020807;28;20215;-83
2022/06/19 02:21:38;;;;;;;2.03;1.07;;;14.40;99.90;;;;;;5018921;28;20263;-83
2022/06/19 02:24:05;;;;;;;9.20;1.40;;;14.40;99.90;;;;;;5021676;28;20198;-83
2022/06/19 02:26:34;;;;;;;6.90;1.13;;;14.50;99.90;;;;;;5005471;28;20758;-84
2022/06/19 02:28:59;;;;;;;2.33;0.77;;;14.40;99.90;;;;;;5019949;28;20207;-83
2022/06/19 02:31:26;;;;;;;6.40;1.33;;;14.40;99.90;;;;;;5003303;28;20226;-82
2022/06/19 02:33:58;;;;;;;6.37;1.47;;;14.30;99.90;;;;;;5022051;28;20218;-83
2022/06/19 02:36:38;;;;;;;1.67;1.20;;;14.30;99.90;;;;;;5021368;28;20280;-83
2022/06/19 02:39:44;;;;;;;1.30;0.90;;;14.30;99.90;;;;;;5022966;28;20542;-82
2022/06/19 02:42:31;;;;;;;1.87;1.30;;;14.30;99.90;;;;;;5021968;28;20798;-83
2022/06/19 02:45:10;;;;;;;3.73;1.10;;;14.40;99.90;;;;;;5052219;28;20263;-81
2022/06/19 02:47:37;;;;;;;6.33;1.87;;;14.10;99.90;;;;;;5018330;28;20237;-82
2022/06/19 02:50:06;;;;;;;13.77;1.23;;;13.70;99.90;;;;;;5018676;28;20223;-82
2022/06/19 02:52:32;;;;;;;3.90;1.37;;;13.30;99.90;;;;;;5019665;28;20305;-82
2022/06/19 02:54:57;;;;;;;0.97;0.93;;;13.10;99.90;;;;;;5019598;28;20222;-81
2022/06/19 02:57:24;;;;;;;3.63;1.07;;;12.80;99.90;;;;;;5018981;28;20225;-81
2022/06/19 02:59:50;;;;;;;8.57;1.57;;;12.60;99.90;;;;;;5023150;28;20183;-81
2022/06/19 03:02:16;;;;;;;4.30;0.87;;;12.60;99.90;;;;;;5022869;28;21057;-81
2022/06/19 03:04:57;;;;;;;1.17;0.50;;;12.60;99.90;;;;;;5023015;28;20270;-81
2022/06/19 03:07:24;;;;;;;7.87;1.90;;;12.50;99.90;;;;;;5022956;28;20280;-82
2022/06/19 03:09:49;;;;;;;3.00;0.77;;;12.50;99.90;;;;;;5023514;28;20214;-82
2022/06/19 03:12:15;;;;;;;4.23;0.50;;;12.50;99.90;;;;;;5023134;28;21003;-81
2022/06/19 03:14:42;;;;;;;6.10;0.97;;;12.30;99.90;;;;;;5022812;28;20218;-82
2022/06/19 03:17:10;;;;;;;2.17;0.73;;;12.30;99.90;;;;;;5023094;28;20232;-82
2022/06/19 03:19:35;;;;;;;0.83;0.50;;;12.30;99.90;;;;;;5021576;28;20219;-82
2022/06/19 03:22:02;;;;;;;6.87;0.93;;;12.30;99.90;;;;;;5023266;28;20234;-82
2022/06/19 03:24:28;;;;;;;5.57;1.37;;;12.30;99.90;;;;;;5023152;28;20226;-82
2022/06/19 03:26:53;;;;;;;5.50;0.97;;;12.30;99.90;;;;;;5022060;28;20190;-82
2022/06/19 03:29:19;;;;;;;1.37;0.80;;;12.20;99.90;;;;;;5021900;28;20634;-82
2022/06/19 03:31:45;;;;;;;0.73;0.63;;;12.20;99.90;;;;;;5022171;28;20624;-80
2022/06/19 03:34:10;;;;;;;3.33;0.97;;;12.10;99.90;;;;;;5021959;28;20230;-82
2022/06/19 03:36:36;;;;;;;4.77;1.17;;;12.10;99.90;;;;;;5021954;28;20228;-82
2022/06/19 03:39:02;;;;;;;2.67;0.73;;;12.10;99.90;;;;;;5027787;28;20656;-82
2022/06/19 03:41:28;;;;;;;5.63;0.80;;;12.10;99.90;;;;;;5024063;28;20199;-81
2022/06/19 03:43:53;;;;;;;0.53;0.53;;;12.20;99.90;;;;;;5021233;28;20769;-82
2022/06/19 03:46:20;;;;;;;4.03;0.80;;;12.20;99.90;;;;;;4996927;28;21279;-82
2022/06/19 03:48:49;;;;;;;1.00;0.63;;;12.30;99.90;;;;;;5022097;28;20226;-83
2022/06/19 03:51:16;;;;;;;2.40;1.17;;;12.30;99.90;;;;;;5022815;28;20232;-83
2022/06/19 03:53:43;;;;;;;5.57;0.77;;;12.40;99.90;;;;;;5022408;28;20199;-82
2022/06/19 03:56:14;;;;;;;2.67;0.87;;;12.50;99.90;;;;;;5054722;28;20277;-82
2022/06/19 03:58:46;;;;;;;6.13;1.73;;;12.40;99.90;;;;;;5022819;28;20269;-83
2022/06/19 04:01:14;;;;;;;5.53;0.93;;;12.40;99.90;;;;;;5006467;28;21331;-83
2022/06/19 04:03:40;;;;;;;3.13;1.27;;;12.40;99.90;;;;;;5021758;28;20262;-83
2022/06/19 04:06:08;;;;;;;4.40;1.67;;;12.40;99.90;;;;;;5022052;28;20245;-83
2022/06/19 04:08:34;;;;;;;0.33;0.33;;;12.40;99.90;;;;;;5021525;28;20225;-82
2022/06/19 04:10:59;;;;;;;2.60;1.17;;;12.50;99.90;;;;;;5020918;28;20313;-82
2022/06/19 04:13:25;;;;;;;5.17;1.30;;;12.50;99.90;;;;;;5021196;28;20313;-82
2022/06/19 04:15:51;;;;;;;2.97;0.90;;;12.50;99.90;;;;;;5004115;28;20225;-82
2022/06/19 04:18:17;;;;;;;5.47;1.33;;;12.40;99.90;;;;;;5021525;28;20289;-81
2022/06/19 04:20:42;;;;;;;4.70;0.60;;;12.30;99.90;;;;;;5022460;28;20198;-82
2022/06/19 04:23:09;;;;;;;2.27;0.57;;;12.30;99.90;;;;;;5020842;28;20224;-83
2022/06/19 04:25:35;;;;;;;5.97;1.27;;;12.20;99.90;;;;;;5020576;28;20699;-83
2022/06/19 04:28:01;;;;;;;6.30;0.77;;;12.20;99.90;;;;;;5020441;28;20210;-83
2022/06/19 04:30:26;;;;;;;3.20;0.93;;;12.10;99.90;;;;;;5021886;28;20683;-82
2022/06/19 04:32:52;;;;;;;0.87;0.87;;;12.10;99.90;;;;;;5022603;28;20198;-82
2022/06/19 04:35:18;;;;;;;1.73;1.27;;;12.00;99.90;;;;;;5020321;28;20230;-81
2022/06/19 04:37:43;;;;;;;3.50;1.07;;;12.00;99.90;;;;;;5022408;28;20221;-84
2022/06/19 04:40:11;;;;;;;2.00;0.83;;;12.10;99.90;;;;;;5038876;28;20237;-82
2022/06/19 04:42:37;;;;;;;0.50;0.50;;;12.00;99.90;;;;;;5023424;28;20337;-83
2022/06/19 04:45:03;;;;;;;0.60;0.40;;;12.00;99.90;;;;;;5005649;28;20214;-83
2022/06/19 04:47:29;;;;;;;2.13;1.03;;;12.00;99.90;;;;;;5006560;28;20669;-82
2022/06/19 04:49:55;;;;;;;2.87;0.93;;;12.00;99.90;;;;;;5022860;28;20223;-84
2022/06/19 04:52:20;;;;;;;4.00;1.17;;;12.10;99.90;;;;;;5021920;28;20241;-84
2022/06/19 04:54:46;;;;;;;0.50;0.50;;;12.10;99.90;;;;;;5022890;28;20210;-85
2022/06/19 04:57:12;;;;;;;3.53;0.80;;;12.20;99.90;;;;;;5022478;28;20199;-83
2022/06/19 04:59:38;;;;;;;1.63;0.70;;;12.30;99.90;;;;;;5022092;28;20952;-83
2022/06/19 05:02:04;;;;;;;13.87;0.93;;;12.30;99.90;;;;;;5023836;28;21083;-83
2022/06/19 05:04:29;;;;;;;1.93;1.27;;;12.30;99.90;;;;;;5038078;28;20242;-85
2022/06/19 05:06:55;;;;;;;1.63;0.57;;;12.30;99.90;;;;;;5023643;28;20262;-84
2022/06/19 05:09:21;;;;;;;2.40;0.57;;;12.30;99.90;;;;;;5022539;28;20224;-84
2022/06/19 05:11:46;;;;;;;4.53;1.80;;;12.40;99.90;;;;;;5023051;28;20198;-84
2022/06/19 05:14:13;;;;;;;9.30;0.97;;;12.40;99.90;;;;;;5020892;28;20588;-84
2022/06/19 05:16:39;;;;;;;6.33;1.00;;;12.50;99.90;;;;;;5022346;28;20809;-83
2022/06/19 05:19:05;;;;;;;1.37;0.30;;;12.50;99.90;;;;;;5022239;28;21146;-82
2022/06/19 05:21:32;;;;;;;1.10;0.93;;;12.50;99.90;;;;;;5020867;28;20226;-83
2022/06/19 05:23:58;;;;;;;0.63;0.63;;;12.50;99.90;;;;;;5021241;28;20563;-83
2022/06/19 05:26:30;;;;;;;5.10;0.80;;;12.60;99.90;;;;;;5021732;28;20241;-85
2022/06/19 05:28:57;;;;;;;2.33;0.73;;;12.70;99.90;;;;;;5021000;28;20214;-82
2022/06/19 05:31:23;;;;;;;0.37;0.37;;;12.60;99.90;;;;;;5021181;28;20305;-83
2022/06/19 05:33:49;;;;;;;4.03;1.73;;;12.60;99.90;;;;;;5020988;28;20234;-83
2022/06/19 05:36:16;;;;;;;1.70;0.67;;;12.50;99.90;;;;;;5022043;28;20198;-84
2022/06/19 05:38:42;;;;;;;0.90;0.77;;;12.50;99.90;;;;;;5021294;28;20191;-84
2022/06/19 05:41:08;;;;;;;2.67;0.50;;;12.60;99.90;;;;;;5020785;28;20272;-83
2022/06/19 05:43:35;;;;;;;2.33;0.60;;;12.60;99.90;;;;;;5022391;28;20232;-85
2022/06/19 05:46:06;;;;;;;0.60;0.60;;;12.70;99.90;;;;;;5022678;28;20237;-85
2022/06/19 05:48:32;;;;;;;6.07;0.97;;;12.70;99.90;;;;;;5021577;28;20210;-84
2022/06/19 05:50:57;;;;;;;0.60;0.47;;;12.80;99.90;;;;;;5022103;28;20271;-83
2022/06/19 05:53:25;;;;;;;0.47;0.47;;;12.90;99.90;;;;;;5021222;28;20597;-84
2022/06/19 05:55:50;;;;;;;1.57;1.07;;;13.00;99.90;;;;;;5021467;28;20750;-83
2022/06/19 05:58:16;;;;;;;1.43;0.63;;;13.10;99.90;;;;;;5020014;28;20219;-84
2022/06/19 06:00:42;;;;;;;1.63;1.17;;;13.00;99.90;;;;;;5019693;28;20261;-84
2022/06/19 06:03:13;;;;;;;4.03;0.60;;;13.10;99.90;;;;;;5020989;28;20199;-83
2022/06/19 06:05:38;;;;;;;0.50;0.50;;;13.10;99.90;;;;;;5021257;28;20678;-82
2022/06/19 06:08:05;;;;;;;1.83;0.90;;;13.20;99.90;;;;;;5019964;28;20237;-82
2022/06/19 06:10:31;;;;;;;1.50;0.90;;;13.20;99.90;;;;;;5019287;28;21204;-82
2022/06/19 06:12:56;;;;;;;3.23;0.90;;;13.10;99.90;;;;;;5019422;28;20305;-84
2022/06/19 06:15:22;;;;;;;0.97;0.60;;;13.20;99.90;;;;;;5018124;28;20268;-83
2022/06/19 06:17:48;;;;;;;3.23;0.80;;;13.30;99.90;;;;;;5020425;28;20306;-83
2022/06/19 06:20:14;;;;;;;0.37;0.37;;;13.60;99.90;;;;;;5018055;28;20478;-83
2022/06/19 06:22:39;;;;;;;1.90;0.90;;;13.80;99.90;;;;;;5020289;28;20602;-82
2022/06/19 06:25:06;;;;;;;3.43;0.60;;;14.00;99.90;;;;;;5020424;28;20239;-84
2022/06/19 06:27:32;;;;;;;0.40;0.40;;;14.00;99.90;;;;;;5019515;28;21018;-83
2022/06/19 06:29:58;;;;;;;1.60;1.00;;;14.10;99.90;;;;;;5002729;28;20194;-82
2022/06/19 06:32:23;;;;;;;4.07;0.57;;;14.30;99.90;;;;;;5021348;28;20587;-82
2022/06/19 06:34:49;;;;;;;2.43;1.50;;;14.40;99.90;;;;;;5021574;28;20225;-83
2022/06/19 06:37:15;;;;;;;2.57;1.07;;;14.70;99.90;;;;;;5023226;28;20234;-83
2022/06/19 06:39:41;;;;;;;3.47;0.67;;;15.20;99.90;;;;;;5022395;28;20276;-83
2022/06/19 06:42:07;;;;;;;0.60;0.60;;;15.30;99.90;;;;;;5023895;28;20281;-84
2022/06/19 06:44:32;;;;;;;0.40;0.40;;;15.00;99.90;;;;;;5024180;28;20678;-82
2022/06/19 06:47:01;;;;;;;3.30;1.03;;;15.00;99.90;;;;;;5022645;28;20239;-83
2022/06/19 06:49:28;;;;;;;2.77;0.40;;;14.80;99.90;;;;;;5023069;28;20222;-83
2022/06/19 06:51:53;;;;;;;2.00;0.50;;;14.50;99.90;;;;;;5023081;28;20218;-82
2022/06/19 06:54:19;;;;;;;1.03;0.67;;;14.40;99.90;;;;;;5023359;28;20691;-82
2022/06/19 06:56:45;;;;;;;1.70;0.57;;;14.40;99.90;;;;;;5022749;28;20183;-82
2022/06/19 06:59:11;;;;;;;2.27;0.43;;;14.50;99.90;;;;;;5020979;28;20295;-83
2022/06/19 07:01:37;;;;;;;4.57;0.80;;;14.70;99.90;;;;;;5022192;28;20206;-82
2022/06/19 07:04:04;;;;;;;1.47;0.80;;;14.70;99.90;;;;;;5022073;28;20238;-82
2022/06/19 07:06:31;;;;;;;1.50;0.40;;;14.80;99.90;;;;;;5023612;28;20229;-81
2022/06/19 07:08:58;;;;;;;3.93;0.60;;;14.50;99.90;;;;;;5023331;28;20683;-81
2022/06/19 07:11:28;;;;;;;2.63;0.63;;;14.40;99.90;;;;;;5023616;28;20222;-82
2022/06/19 07:13:54;;;;;;;2.30;0.60;;;14.10;99.90;;;;;;5023949;28;20245;-82
2022/06/19 07:16:20;;;;;;;1.00;0.47;;;14.10;99.90;;;;;;5023309;28;20726;-81
2022/06/19 07:18:46;;;;;;;0.50;0.50;;;14.00;99.90;;;;;;5023120;28;20314;-81
2022/06/19 07:21:13;;;;;;;2.97;0.83;;;14.00;99.90;;;;;;5022852;28;20253;-82
2022/06/19 07:23:39;;;;;;;3.37;1.17;;;14.10;99.90;;;;;;5021201;28;20474;-81
2022/06/19 07:26:11;;;;;;;1.60;0.60;;;14.00;99.90;;;;;;5022229;28;20552;-80
2022/06/19 07:28:37;;;;;;;2.23;0.77;;;14.00;99.90;;;;;;5020313;28;20820;-82
2022/06/19 07:31:02;;;;;;;2.77;0.60;;;13.90;99.90;;;;;;5005300;28;20214;-82
2022/06/19 07:33:28;;;;;;;1.80;0.83;;;14.10;99.90;;;;;;5022121;28;20595;-82
2022/06/19 07:35:54;;;;;;;0.70;0.70;;;14.10;99.90;;;;;;5023799;28;20198;-82
2022/06/19 07:38:19;;;;;;;2.60;0.83;;;14.30;99.90;;;;;;5021640;28;20254;-81
2022/06/19 07:40:45;;;;;;;5.40;1.17;;;14.40;99.90;;;;;;5022627;28;20718;-81
2022/06/19 07:43:11;;;;;;;1.37;0.70;;;14.50;99.90;;;;;;5017362;28;20316;-80
2022/06/19 07:45:36;;;;;;;0.60;0.60;;;14.40;99.90;;;;;;5021125;28;20238;-83
2022/06/19 07:50:48;;;;;;;1.33;1.23;;;14.50;99.90;;;;;;5021349;28;20190;-82
2022/06/19 07:53:15;;;;;;;0.90;0.80;;;14.90;99.90;;;;;;5021054;28;20214;-81
2022/06/19 07:55:40;;;;;;;0.47;0.43;;;15.00;99.90;;;;;;5021467;28;20234;-82
2022/06/19 07:58:07;;;;;;;0.80;0.80;;;15.00;99.90;;;;;;5020732;28;20386;-81
2022/06/19 08:00:36;;;;;;;2.20;0.73;;;14.90;99.90;;;;;;5020955;28;20211;-81
2022/06/19 08:03:03;;;;;;;1.90;0.90;;;15.10;99.90;;;;;;5021077;28;20203;-81
2022/06/19 08:05:31;;;;;;;1.00;0.73;;;15.20;99.90;;;;;;5021303;28;20509;-80
2022/06/19 08:07:58;;;;;;;1.80;0.80;;;15.20;99.90;;;;;;5021877;28;20231;-82
2022/06/19 08:10:27;;;;;;;0.70;0.70;;;15.30;99.90;;;;;;5021017;28;20567;-81
2022/06/19 08:12:53;;;;;;;1.00;0.53;;;15.50;99.90;;;;;;5020865;28;20730;-79
2022/06/19 08:15:20;;;;;;;0.60;0.40;;;15.40;99.90;;;;;;5021188;28;20265;-80
2022/06/19 08:17:46;;;;;;;0.23;0.23;;;15.10;99.90;;;;;;5021991;28;21079;-81
2022/06/19 08:20:13;;;;;;;3.07;0.83;;;15.20;99.90;;;;;;5021946;28;20222;-80
2022/06/19 08:25:15;;;;;;;6.30;0.77;;;14.80;99.90;;;;;;5027004;28;20238;-89
2022/06/19 08:27:42;;;;;;;3.40;0.50;;;14.80;99.90;;;;;;5011255;28;20214;-89
2022/06/19 08:30:20;;;;;;;0.87;0.60;;;14.60;99.90;;;;;;4995278;28;20183;-89
2022/06/19 08:32:46;;;;;;;0.70;0.30;;;14.60;99.90;;;;;;5011188;28;20175;-89
2022/06/19 08:35:11;;;;;;;1.53;0.50;;;14.80;99.90;;;;;;4990748;28;20215;-89
2022/06/19 08:37:39;;;;;;;3.80;0.50;;;14.70;99.90;;;;;;4985974;28;20218;-88
2022/06/19 08:40:45;;;;;;;0.80;0.67;;;14.70;99.90;;;;;;5003723;28;20297;-89
2022/06/19 08:43:53;;;;;;;1.70;0.90;;;14.60;99.90;;;;;;5018106;28;20214;-88
2022/06/19 08:46:51;;;;;;;1.53;0.73;;;14.60;99.90;;;;;;4985842;28;20234;-87
2022/06/19 08:50:08;;;;;;;1.27;1.17;;;14.50;99.90;;;;;;5007068;28;20234;-87
2022/06/19 08:52:59;;;;;;;1.13;0.50;;;14.30;99.90;;;;;;4968531;28;21059;-88
2022/06/19 08:55:30;;;;;;;3.70;0.63;;;14.40;99.90;;;;;;4998767;28;20635;-86
2022/06/19 08:58:16;;;;;;;3.90;0.77;;;14.40;99.90;;;;;;4990316;28;20211;-87
2022/06/19 09:00:51;;;;;;;0.80;0.40;;;14.40;99.90;;;;;;4989917;28;20255;-87
2022/06/19 09:06:48;;;;;;;1.40;0.30;;;14.50;99.90;;;;;;4984875;28;20222;-87
2022/06/19 09:09:43;;;;;;;0.50;0.50;;;14.50;99.90;;;;;;4989291;28;21034;-88
2022/06/19 09:12:28;;;;;;;0.40;0.40;;;14.50;99.90;;;;;;4982614;28;20195;-88
2022/06/19 09:15:14;;;;;;;0.43;0.43;;;14.70;99.90;;;;;;4989887;28;20183;-87
2022/06/19 09:18:00;;;;;;;0.60;0.53;;;14.80;99.90;;;;;;4989944;28;20222;-88
2022/06/19 09:20:46;;;;;;;2.87;0.70;;;14.90;99.90;;;;;;4990050;28;20605;-88
2022/06/19 09:23:32;;;;;;;0.60;0.43;;;15.00;99.90;;;;;;4998704;28;20645;-87
2022/06/19 09:26:08;;;;;;;3.60;0.43;;;15.10;99.90;;;;;;4989603;28;20825;-88
2022/06/19 09:28:46;;;;;;;0.30;0.30;;;15.00;99.90;;;;;;4989433;28;20635;-87
2022/06/19 09:31:27;;;;;;;0.50;0.50;;;14.80;99.90;;;;;;4981877;28;20222;-87
2022/06/19 09:34:01;;;;;;;2.77;0.63;;;14.90;99.90;;;;;;4989713;28;20219;-88
2022/06/19 09:36:50;;;;;;;1.70;0.60;;;15.10;99.90;;;;;;5005880;28;20208;-89
2022/06/19 09:39:21;;;;;;;2.50;0.70;;;15.50;99.90;;;;;;4986928;28;20290;-87
2022/06/19 09:42:00;;;;;;;1.53;0.60;;;15.90;99.90;;;;;;5005251;28;20183;-87
2022/06/19 09:44:36;;;;;;;2.20;0.70;;;16.10;99.90;;;;;;4990430;28;20219;-88
2022/06/19 09:47:18;;;;;;;0.60;0.60;;;16.70;99.90;;;;;;4981794;28;20223;-87
2022/06/19 09:50:06;;;;;;;0.70;0.50;;;16.30;99.90;;;;;;4989704;28;20289;-87
2022/06/19 09:52:45;;;;;;;1.57;0.70;;;16.20;99.90;;;;;;4989760;28;20215;-87
2022/06/19 09:55:17;;;;;;;2.00;0.77;;;17.20;99.90;;;;;;4996846;28;20226;-89
2022/06/19 09:57:58;;;;;;;3.03;1.23;;;18.00;99.90;;;;;;4988810;28;20203;-85
2022/06/19 10:00:29;;;;;;;1.53;0.50;;;17.10;99.90;;;;;;4989782;28;20692;-85
2022/06/19 10:03:03;;;;;;;3.30;0.53;;;16.80;99.90;;;;;;4989226;28;20262;-88
2022/06/19 10:05:32;;;;;;;4.73;1.00;;;17.20;99.90;;;;;;4989497;28;20305;-88
2022/06/19 10:08:15;;;;;;;3.87;1.00;;;18.20;99.90;;;;;;4988441;28;21146;-87
2022/06/19 10:10:45;;;;;;;1.00;0.73;;;19.20;99.90;;;;;;4983101;28;20802;-86
2022/06/19 10:13:39;;;;;;;1.87;1.17;;;20.00;99.90;;;;;;5005704;28;20257;-85
2022/06/19 10:16:44;;;;;;;5.47;1.00;;;20.30;99.90;;;;;;5005754;28;20612;-85
2022/06/19 10:19:25;;;;;;;6.70;1.00;;;19.30;99.90;;;;;;4987431;28;20223;-85
2022/06/19 10:22:13;;;;;;;4.63;0.80;;;18.50;99.90;;;;;;4989268;28;20234;-85
2022/06/19 10:25:04;;;;;;;4.60;0.90;;;17.70;99.90;;;;;;4981100;28;20234;-85
2022/06/19 10:27:38;;;;;;;1.07;0.53;;;17.80;99.90;;;;;;5005293;28;20731;-84
2022/06/19 10:30:14;;;;;;;4.47;0.70;;;17.60;99.90;;;;;;4989128;28;20194;-88
2022/06/19 10:32:54;;;;;;;3.67;1.10;;;17.70;99.90;;;;;;4989346;28;20167;-88
2022/06/19 10:35:29;;;;;;;1.70;0.70;;;18.00;99.90;;;;;;5005410;28;20253;-87
2022/06/19 10:38:04;;;;;;;1.53;0.63;;;19.00;99.90;;;;;;5006111;28;20214;-86
2022/06/19 10:40:38;;;;;;;1.30;0.50;;;18.90;99.90;;;;;;4988323;28;20891;-87
2022/06/19 10:43:25;;;;;;;1.10;0.57;;;18.80;99.90;;;;;;5005920;28;20282;-85
2022/06/19 10:46:00;;;;;;;1.23;0.90;;;19.80;99.90;;;;;;4980377;28;20253;-86
2022/06/19 10:48:39;;;;;;;2.70;0.83;;;19.80;99.90;;;;;;4989652;28;20701;-85
2022/06/19 10:51:30;;;;;;;1.43;0.83;;;18.80;99.90;;;;;;5006301;28;20187;-85
2022/06/19 10:54:20;;;;;;;2.73;0.50;;;17.80;99.90;;;;;;4965265;28;20195;-86
2022/06/19 10:57:06;;;;;;;0.83;0.50;;;18.70;99.90;;;;;;5017422;28;20237;-86
2022/06/19 10:59:33;;;;;;;2.30;0.50;;;19.30;99.90;;;;;;5009214;28;20245;-86
2022/06/19 11:05:15;;;;;;;1.80;0.70;;;18.80;99.90;;;;;;5026671;28;20224;-85
2022/06/19 11:07:41;;;;;;;2.23;0.90;;;18.20;99.90;;;;;;5026484;28;20325;-86
2022/06/19 11:10:43;;;;;;;1.43;0.90;;;17.70;99.90;;;;;;4993213;28;20310;-89
2022/06/19 11:13:10;;;;;;;4.43;1.00;;;18.00;99.90;;;;;;4911490;29;20316;-83
2022/06/19 11:15:47;;;;;;;3.57;1.27;;;18.60;99.90;;;;;;4965458;28;20211;-84
2022/06/19 11:18:20;;;;;;;1.80;0.67;;;18.80;99.90;;;;;;5007997;28;20167;-86
2022/06/19 11:21:11;;;;;;;4.47;0.60;;;18.30;99.90;;;;;;4994001;28;20306;-87
2022/06/19 11:23:41;;;;;;;1.70;0.93;;;18.00;99.90;;;;;;5012082;28;20222;-85
2022/06/19 11:26:14;;;;;;;0.70;0.60;;;17.30;99.90;;;;;;5006460;28;20222;-86
2022/06/19 11:29:11;;;;;;;1.30;0.40;;;17.50;99.90;;;;;;5030368;28;20272;-86
2022/06/19 11:31:59;;;;;;;1.50;0.87;;;17.50;99.90;;;;;;5012355;28;20246;-87
2022/06/19 11:34:44;;;;;;;3.33;0.83;;;17.80;99.90;;;;;;5019921;28;20229;-88
2022/06/19 11:37:12;;;;;;;1.93;0.90;;;18.00;99.90;;;;;;4998649;28;20237;-88
2022/06/19 11:39:41;;;;;;;1.57;1.17;;;17.40;99.90;;;;;;5012217;28;20214;-88
2022/06/19 11:42:26;;;;;;;2.93;0.90;;;17.50;99.90;;;;;;5012837;28;20190;-86
2022/06/19 11:44:56;;;;;;;1.00;0.83;;;17.60;99.90;;;;;;5005806;28;20249;-86
2022/06/19 11:47:32;;;;;;;1.67;0.70;;;17.70;99.90;;;;;;5029739;28;20215;-87
2022/06/19 11:50:31;;;;;;;0.83;0.67;;;17.80;99.90;;;;;;5012075;28;20301;-88
2022/06/19 11:53:06;;;;;;;1.33;0.53;;;17.60;99.90;;;;;;5004085;28;20222;-88
2022/06/19 11:55:37;;;;;;;1.13;0.83;;;17.50;99.90;;;;;;5000109;28;20254;-87
2022/06/19 11:58:29;;;;;;;0.57;0.53;;;17.50;99.90;;;;;;4996154;28;20206;-88
2022/06/19 12:01:17;;;;;;;1.50;1.30;;;17.90;99.90;;;;;;5011840;28;20682;-88
2022/06/19 12:03:55;;;;;;;2.27;1.20;;;18.70;99.90;;;;;;5011678;28;20238;-87
2022/06/19 12:06:50;;;;;;;3.23;0.60;;;18.90;99.90;;;;;;5008184;28;20293;-88
2022/06/19 12:09:42;;;;;;;1.13;0.70;;;18.10;99.90;;;;;;5008247;28;20183;-88
2022/06/19 12:12:11;;;;;;;3.07;1.00;;;18.10;99.90;;;;;;4957753;28;20196;-88
2022/06/19 12:14:53;;;;;;;2.70;0.67;;;18.00;99.90;;;;;;4991817;28;20227;-88
2022/06/19 12:17:33;;;;;;;1.30;1.07;;;17.90;99.90;;;;;;4990841;28;20250;-88
2022/06/19 12:20:06;;;;;;;2.20;0.87;;;18.20;99.90;;;;;;4990871;28;20214;-87
2022/06/19 12:23:06;;;;;;;1.50;0.60;;;18.30;99.90;;;;;;4983187;28;20656;-87
2022/06/19 12:25:45;;;;;;;4.37;0.90;;;17.80;99.90;;;;;;4991073;28;20719;-88
2022/06/19 12:28:34;;;;;;;3.40;1.03;;;17.90;99.90;;;;;;4991198;28;20215;-89
2022/06/19 12:31:12;;;;;;;0.30;0.30;;;17.70;99.90;;;;;;4990508;28;20211;-88
2022/06/19 12:33:57;;;;;;;3.93;0.87;;;18.30;99.90;;;;;;4991089;28;20214;-89
2022/06/19 12:36:32;;;;;;;1.70;0.47;;;18.50;99.90;;;;;;4991319;28;20610;-89
2022/06/19 12:38:58;;;;;;;1.90;0.90;;;18.60;99.90;;;;;;4985762;28;20179;-88
2022/06/19 12:41:32;;;;;;;2.57;1.00;;;18.20;99.90;;;;;;4975575;28;20222;-88
2022/06/19 12:44:31;;;;;;;2.47;0.63;;;18.20;99.90;;;;;;4982887;28;21029;-88
2022/06/19 12:47:12;;;;;;;5.80;0.97;;;18.10;99.90;;;;;;5006660;28;20235;-88
2022/06/19 12:49:59;;;;;;;1.50;0.63;;;18.50;99.90;;;;;;5007230;28;20221;-88
2022/06/19 12:52:53;;;;;;;3.23;1.03;;;18.00;99.90;;;;;;5006373;28;20230;-88
2022/06/19 12:55:31;;;;;;;5.33;1.10;;;18.40;99.90;;;;;;4990667;28;20247;-88
2022/06/19 12:58:21;;;;;;;2.43;0.83;;;18.50;99.90;;;;;;4999012;28;20601;-88
2022/06/19 13:01:01;;;;;;;2.87;1.00;;;18.80;99.90;;;;;;4982547;28;20218;-88
2022/06/19 13:03:41;;;;;;;1.30;0.93;;;18.50;99.90;;;;;;4990722;28;20253;-87
2022/06/19 13:06:22;;;;;;;3.83;1.10;;;18.90;99.90;;;;;;5008148;28;20245;-87
2022/06/19 13:09:31;;;;;;;3.30;0.97;;;18.60;99.90;;;;;;4990616;28;20636;-87
2022/06/19 13:12:22;;;;;;;2.23;0.70;;;18.60;99.90;;;;;;5018907;28;20228;-87
2022/06/19 13:14:59;;;;;;;3.60;1.00;;;18.60;99.90;;;;;;5002397;28;20178;-87
2022/06/19 13:17:35;;;;;;;2.90;1.37;;;18.80;99.90;;;;;;5001478;28;20214;-86
2022/06/19 13:20:23;;;;;;;4.27;1.07;;;18.60;99.90;;;;;;5010006;28;20305;-87
2022/06/19 13:23:03;;;;;;;6.37;1.70;;;18.30;99.90;;;;;;5010080;28;20230;-87
2022/06/19 13:25:52;;;;;;;4.40;1.17;;;17.90;99.90;;;;;;4996712;28;20826;-87